Hampton, Atlanta South Regional Airport/Tara Field (KHMP)

NameAtlanta South Regional Airport/Tara Field
CityHampton
CountryUnited States
ICAOKHMP
IATA
Altitude266 m
CoordinatesGoogle Map
Live Air TrafficLiveATC.net
METARKHMP 180255Z AUTO 10009KT 10SM CLR 08/M05 A3055 RMK AO2 T00761049
2020-01-18 02:55:00 Wind: East (100°) 4.63 m/s - Visibility: 16093.4 m - Temperature: 8 °C - Dew point: -5 °C - Humidity: 39.7% - Pressure: 1034.54 hPa
Statistics

The table below shows the detailed information of all flights to/from Hampton, Atlanta South Regional Airport/Tara Field (KHMP).